sensor_id;sensor_type;location;lat;lon;timestamp;temperature;humidity
24252;DHT22;12380;51.118;4.176;2023-08-31T00:01:48;12.20;99.90
24252;DHT22;12380;51.118;4.176;2023-08-31T00:04:14;12.30;99.90
24252;DHT22;12380;51.118;4.176;2023-08-31T00:06:43;12.30;99.90
24252;DHT22;12380;51.118;4.176;2023-08-31T00:09:10;12.30;99.90
24252;DHT22;12380;51.118;4.176;2023-08-31T00:11:36;12.20;99.90
24252;DHT22;12380;51.118;4.176;2023-08-31T00:14:02;12.10;99.90
24252;DHT22;12380;51.118;4.176;2023-08-31T00:16:28;12.20;99.90
24252;DHT22;12380;51.118;4.176;2023-08-31T00:18:56;12.20;99.90
24252;DHT22;12380;51.118;4.176;2023-08-31T00:21:21;12.20;99.90
24252;DHT22;12380;51.118;4.176;2023-08-31T00:23:49;12.10;99.90
24252;DHT22;12380;51.118;4.176;2023-08-31T00:26:15;12.20;99.90
24252;DHT22;12380;51.118;4.176;2023-08-31T00:28:41;12.20;99.90
24252;DHT22;12380;51.118;4.176;2023-08-31T00:31:08;12.20;99.90
24252;DHT22;12380;51.118;4.176;2023-08-31T00:33:33;12.10;99.90
24252;DHT22;12380;51.118;4.176;2023-08-31T00:35:59;12.20;99.90
24252;DHT22;12380;51.118;4.176;2023-08-31T00:38:27;12.20;99.90
24252;DHT22;12380;51.118;4.176;2023-08-31T00:40:52;12.10;99.90
24252;DHT22;12380;51.118;4.176;2023-08-31T00:43:19;12.10;99.90
24252;DHT22;12380;51.118;4.176;2023-08-31T00:45:45;12.10;99.90
24252;DHT22;12380;51.118;4.176;2023-08-31T00:48:11;12.10;99.90
24252;DHT22;12380;51.118;4.176;2023-08-31T00:50:37;12.00;99.90
24252;DHT22;12380;51.118;4.176;2023-08-31T00:53:03;12.10;99.90
24252;DHT22;12380;51.118;4.176;2023-08-31T00:55:29;12.20;99.90
24252;DHT22;12380;51.118;4.176;2023-08-31T00:57:54;12.10;99.90
24252;DHT22;12380;51.118;4.176;2023-08-31T01:00:22;12.00;99.90
24252;DHT22;12380;51.118;4.176;2023-08-31T01:02:59;11.90;99.90
24252;DHT22;12380;51.118;4.176;2023-08-31T01:08:18;12.00;99.90
24252;DHT22;12380;51.118;4.176;2023-08-31T01:10:54;12.00;99.90
24252;DHT22;12380;51.118;4.176;2023-08-31T01:13:23;12.00;99.90
24252;DHT22;12380;51.118;4.176;2023-08-31T01:15:56;12.00;99.90
24252;DHT22;12380;51.118;4.176;2023-08-31T01:18:25;12.00;99.90
24252;DHT22;12380;51.118;4.176;2023-08-31T01:23:29;12.20;99.90
24252;DHT22;12380;51.118;4.176;2023-08-31T01:25:56;12.20;99.90
24252;DHT22;12380;51.118;4.176;2023-08-31T01:28:22;12.10;99.90
24252;DHT22;12380;51.118;4.176;2023-08-31T01:30:48;12.00;99.90
24252;DHT22;12380;51.118;4.176;2023-08-31T01:33:14;12.10;99.90
24252;DHT22;12380;51.118;4.176;2023-08-31T01:35:44;12.20;99.90
24252;DHT22;12380;51.118;4.176;2023-08-31T01:38:11;12.20;99.90
24252;DHT22;12380;51.118;4.176;2023-08-31T01:40:47;12.20;99.90
24252;DHT22;12380;51.118;4.176;2023-08-31T01:43:15;12.20;99.90
24252;DHT22;12380;51.118;4.176;2023-08-31T01:45:45;12.20;99.90
24252;DHT22;12380;51.118;4.176;2023-08-31T01:48:13;12.20;99.90
24252;DHT22;12380;51.118;4.176;2023-08-31T01:50:39;12.10;99.90
24252;DHT22;12380;51.118;4.176;2023-08-31T01:53:04;12.10;99.90
24252;DHT22;12380;51.118;4.176;2023-08-31T01:55:32;12.20;99.90
24252;DHT22;12380;51.118;4.176;2023-08-31T01:57:57;12.30;99.90
24252;DHT22;12380;51.118;4.176;2023-08-31T02:00:24;12.20;99.90
24252;DHT22;12380;51.118;4.176;2023-08-31T02:02:50;12.20;99.90
24252;DHT22;12380;51.118;4.176;2023-08-31T02:05:16;12.20;99.90
24252;DHT22;12380;51.118;4.176;2023-08-31T02:07:41;12.10;99.90
24252;DHT22;12380;51.118;4.176;2023-08-31T02:10:07;12.00;99.90
24252;DHT22;12380;51.118;4.176;2023-08-31T02:12:33;12.10;99.90
24252;DHT22;12380;51.118;4.176;2023-08-31T02:14:59;12.10;99.90
24252;DHT22;12380;51.118;4.176;2023-08-31T02:17:25;12.10;99.90
24252;DHT22;12380;51.118;4.176;2023-08-31T02:19:50;12.20;99.90
24252;DHT22;12380;51.118;4.176;2023-08-31T02:22:16;12.00;99.90
24252;DHT22;12380;51.118;4.176;2023-08-31T02:24:42;12.00;99.90
24252;DHT22;12380;51.118;4.176;2023-08-31T02:27:07;12.00;99.90
24252;DHT22;12380;51.118;4.176;2023-08-31T02:29:35;12.10;99.90
24252;DHT22;12380;51.118;4.176;2023-08-31T02:32:03;12.20;99.90
24252;DHT22;12380;51.118;4.176;2023-08-31T02:34:29;12.20;99.90
24252;DHT22;12380;51.118;4.176;2023-08-31T02:36:56;12.20;99.90
24252;DHT22;12380;51.118;4.176;2023-08-31T02:39:21;12.20;99.90
24252;DHT22;12380;51.118;4.176;2023-08-31T02:41:47;12.10;99.90
24252;DHT22;12380;51.118;4.176;2023-08-31T02:44:12;12.10;99.90
24252;DHT22;12380;51.118;4.176;2023-08-31T02:46:38;12.20;99.90
24252;DHT22;12380;51.118;4.176;2023-08-31T02:49:04;12.20;99.90
24252;DHT22;12380;51.118;4.176;2023-08-31T02:51:32;12.20;99.90
24252;DHT22;12380;51.118;4.176;2023-08-31T02:53:58;12.30;99.90
24252;DHT22;12380;51.118;4.176;2023-08-31T02:56:23;12.20;99.90
24252;DHT22;12380;51.118;4.176;2023-08-31T02:58:49;12.20;99.90
24252;DHT22;12380;51.118;4.176;2023-08-31T03:01:15;12.20;99.90
24252;DHT22;12380;51.118;4.176;2023-08-31T03:03:41;12.10;99.90
24252;DHT22;12380;51.118;4.176;2023-08-31T03:06:07;12.10;99.90
24252;DHT22;12380;51.118;4.176;2023-08-31T03:08:34;12.00;99.90
24252;DHT22;12380;51.118;4.176;2023-08-31T03:10:59;12.10;99.90
24252;DHT22;12380;51.118;4.176;2023-08-31T03:13:28;11.90;99.90
24252;DHT22;12380;51.118;4.176;2023-08-31T03:15:53;11.90;99.90
24252;DHT22;12380;51.118;4.176;2023-08-31T03:18:19;12.00;99.90
24252;DHT22;12380;51.118;4.176;2023-08-31T03:20:44;12.00;99.90
24252;DHT22;12380;51.118;4.176;2023-08-31T03:23:10;12.00;99.90
24252;DHT22;12380;51.118;4.176;2023-08-31T03:25:36;12.10;99.90
24252;DHT22;12380;51.118;4.176;2023-08-31T03:28:02;12.00;99.90
24252;DHT22;12380;51.118;4.176;2023-08-31T03:30:28;12.00;99.90
24252;DHT22;12380;51.118;4.176;2023-08-31T03:32:53;12.00;99.90
24252;DHT22;12380;51.118;4.176;2023-08-31T03:35:19;11.90;99.90
24252;DHT22;12380;51.118;4.176;2023-08-31T03:37:48;11.90;99.90
24252;DHT22;12380;51.118;4.176;2023-08-31T03:40:13;12.00;99.90
24252;DHT22;12380;51.118;4.176;2023-08-31T03:42:39;12.00;99.90
24252;DHT22;12380;51.118;4.176;2023-08-31T03:45:05;12.00;99.90
24252;DHT22;12380;51.118;4.176;2023-08-31T03:47:30;12.10;99.90
24252;DHT22;12380;51.118;4.176;2023-08-31T03:49:56;12.10;99.90
24252;DHT22;12380;51.118;4.176;2023-08-31T03:52:22;12.10;99.90
24252;DHT22;12380;51.118;4.176;2023-08-31T03:54:48;12.10;99.90
24252;DHT22;12380;51.118;4.176;2023-08-31T03:57:14;12.10;99.90
24252;DHT22;12380;51.118;4.176;2023-08-31T03:59:40;12.30;99.90
24252;DHT22;12380;51.118;4.176;2023-08-31T04:02:05;12.30;99.90
24252;DHT22;12380;51.118;4.176;2023-08-31T04:04:31;12.30;99.90
24252;DHT22;12380;51.118;4.176;2023-08-31T04:06:57;12.20;99.90
24252;DHT22;12380;51.118;4.176;2023-08-31T04:09:23;12.20;99.90
24252;DHT22;12380;51.118;4.176;2023-08-31T04:11:51;12.30;99.90
24252;DHT22;12380;51.118;4.176;2023-08-31T04:14:19;12.20;99.90
24252;DHT22;12380;51.118;4.176;2023-08-31T04:16:45;12.30;99.90
24252;DHT22;12380;51.118;4.176;2023-08-31T04:19:14;12.20;99.90
24252;DHT22;12380;51.118;4.176;2023-08-31T04:21:40;12.20;99.90
24252;DHT22;12380;51.118;4.176;2023-08-31T04:24:05;12.10;99.90
24252;DHT22;12380;51.118;4.176;2023-08-31T04:26:31;12.20;99.90
24252;DHT22;12380;51.118;4.176;2023-08-31T04:28:57;12.20;99.90
24252;DHT22;12380;51.118;4.176;2023-08-31T04:31:22;12.20;99.90
24252;DHT22;12380;51.118;4.176;2023-08-31T04:33:48;12.10;99.90
24252;DHT22;12380;51.118;4.176;2023-08-31T04:36:19;12.10;99.90
24252;DHT22;12380;51.118;4.176;2023-08-31T04:38:45;12.10;99.90
24252;DHT22;12380;51.118;4.176;2023-08-31T04:41:10;12.00;99.90
24252;DHT22;12380;51.118;4.176;2023-08-31T04:43:38;12.10;99.90
24252;DHT22;12380;51.118;4.176;2023-08-31T04:46:05;12.10;99.90
24252;DHT22;12380;51.118;4.176;2023-08-31T04:48:30;12.10;99.90
24252;DHT22;12380;51.118;4.176;2023-08-31T04:50:56;12.20;99.90
24252;DHT22;12380;51.118;4.176;2023-08-31T04:53:22;12.10;99.90
24252;DHT22;12380;51.118;4.176;2023-08-31T04:55:48;12.00;99.90
24252;DHT22;12380;51.118;4.176;2023-08-31T04:58:13;12.00;99.90
24252;DHT22;12380;51.118;4.176;2023-08-31T05:00:39;11.90;99.90
24252;DHT22;12380;51.118;4.176;2023-08-31T05:03:05;12.00;99.90
24252;DHT22;12380;51.118;4.176;2023-08-31T05:05:31;12.00;99.90
24252;DHT22;12380;51.118;4.176;2023-08-31T05:07:56;12.00;99.90
24252;DHT22;12380;51.118;4.176;2023-08-31T05:10:22;12.00;99.90
24252;DHT22;12380;51.118;4.176;2023-08-31T05:12:50;12.00;99.90
24252;DHT22;12380;51.118;4.176;2023-08-31T05:15:16;12.10;99.90
24252;DHT22;12380;51.118;4.176;2023-08-31T05:17:42;12.10;99.90
24252;DHT22;12380;51.118;4.176;2023-08-31T05:20:07;12.10;99.90
24252;DHT22;12380;51.118;4.176;2023-08-31T05:22:35;12.20;99.90
24252;DHT22;12380;51.118;4.176;2023-08-31T05:25:00;12.30;99.90
24252;DHT22;12380;51.118;4.176;2023-08-31T05:27:26;12.40;99.90
24252;DHT22;12380;51.118;4.176;2023-08-31T05:29:52;12.40;99.90
24252;DHT22;12380;51.118;4.176;2023-08-31T05:32:20;12.40;99.90
24252;DHT22;12380;51.118;4.176;2023-08-31T05:34:45;12.50;99.90
24252;DHT22;12380;51.118;4.176;2023-08-31T05:37:11;12.40;99.90
24252;DHT22;12380;51.118;4.176;2023-08-31T05:39:37;12.40;99.90
24252;DHT22;12380;51.118;4.176;2023-08-31T05:42:03;12.40;99.90
24252;DHT22;12380;51.118;4.176;2023-08-31T05:44:28;12.40;99.90
24252;DHT22;12380;51.118;4.176;2023-08-31T05:46:54;12.50;99.90
24252;DHT22;12380;51.118;4.176;2023-08-31T05:49:19;12.50;99.90
24252;DHT22;12380;51.118;4.176;2023-08-31T05:51:45;12.50;99.90
24252;DHT22;12380;51.118;4.176;2023-08-31T05:54:10;12.60;99.90
24252;DHT22;12380;51.118;4.176;2023-08-31T05:56:38;12.60;99.90
24252;DHT22;12380;51.118;4.176;2023-08-31T05:59:05;12.50;99.90
24252;DHT22;12380;51.118;4.176;2023-08-31T06:01:31;12.60;99.90
24252;DHT22;12380;51.118;4.176;2023-08-31T06:03:57;12.60;99.90
24252;DHT22;12380;51.118;4.176;2023-08-31T06:06:23;12.60;99.90
24252;DHT22;12380;51.118;4.176;2023-08-31T06:08:49;12.60;99.90
24252;DHT22;12380;51.118;4.176;2023-08-31T06:11:15;12.60;99.90
24252;DHT22;12380;51.118;4.176;2023-08-31T06:13:40;12.60;99.90
24252;DHT22;12380;51.118;4.176;2023-08-31T06:16:08;12.70;99.90
24252;DHT22;12380;51.118;4.176;2023-08-31T06:18:34;12.80;99.90
24252;DHT22;12380;51.118;4.176;2023-08-31T06:20:59;12.90;99.90
24252;DHT22;12380;51.118;4.176;2023-08-31T06:23:25;12.90;99.90
24252;DHT22;12380;51.118;4.176;2023-08-31T06:25:51;13.00;99.90
24252;DHT22;12380;51.118;4.176;2023-08-31T06:28:16;13.00;99.90
24252;DHT22;12380;51.118;4.176;2023-08-31T06:30:42;13.00;99.90
24252;DHT22;12380;51.118;4.176;2023-08-31T06:33:13;13.10;99.90
24252;DHT22;12380;51.118;4.176;2023-08-31T06:35:41;13.00;99.90
24252;DHT22;12380;51.118;4.176;2023-08-31T06:38:06;13.10;99.90
24252;DHT22;12380;51.118;4.176;2023-08-31T06:40:32;13.20;99.90
24252;DHT22;12380;51.118;4.176;2023-08-31T06:42:58;13.40;99.90
24252;DHT22;12380;51.118;4.176;2023-08-31T06:45:24;13.40;99.90
24252;DHT22;12380;51.118;4.176;2023-08-31T06:47:49;13.60;99.90
24252;DHT22;12380;51.118;4.176;2023-08-31T06:50:15;13.60;99.90
24252;DHT22;12380;51.118;4.176;2023-08-31T06:52:41;13.80;99.90
24252;DHT22;12380;51.118;4.176;2023-08-31T06:55:07;13.80;99.90
24252;DHT22;12380;51.118;4.176;2023-08-31T06:57:33;13.70;99.90
24252;DHT22;12380;51.118;4.176;2023-08-31T06:59:59;13.70;99.90
24252;DHT22;12380;51.118;4.176;2023-08-31T07:02:28;13.60;99.90
24252;DHT22;12380;51.118;4.176;2023-08-31T07:04:53;13.60;99.90
24252;DHT22;12380;51.118;4.176;2023-08-31T07:07:19;13.70;99.90
24252;DHT22;12380;51.118;4.176;2023-08-31T07:09:47;13.90;99.90
24252;DHT22;12380;51.118;4.176;2023-08-31T07:12:16;14.00;99.90
24252;DHT22;12380;51.118;4.176;2023-08-31T07:14:42;14.20;99.90
24252;DHT22;12380;51.118;4.176;2023-08-31T07:17:07;14.50;99.90
24252;DHT22;12380;51.118;4.176;2023-08-31T07:19:36;14.80;99.90
24252;DHT22;12380;51.118;4.176;2023-08-31T07:22:04;15.40;99.90
24252;DHT22;12380;51.118;4.176;2023-08-31T07:24:34;16.10;99.90
24252;DHT22;12380;51.118;4.176;2023-08-31T07:27:02;15.90;99.90
24252;DHT22;12380;51.118;4.176;2023-08-31T07:29:28;16.60;99.90
24252;DHT22;12380;51.118;4.176;2023-08-31T07:31:54;16.60;99.90
24252;DHT22;12380;51.118;4.176;2023-08-31T07:34:19;16.60;99.90
24252;DHT22;12380;51.118;4.176;2023-08-31T07:36:46;16.50;99.90
24252;DHT22;12380;51.118;4.176;2023-08-31T07:39:12;17.20;99.90
24252;DHT22;12380;51.118;4.176;2023-08-31T07:41:37;17.70;99.90
24252;DHT22;12380;51.118;4.176;2023-08-31T07:44:03;17.60;99.90
24252;DHT22;12380;51.118;4.176;2023-08-31T07:46:29;17.50;99.90
24252;DHT22;12380;51.118;4.176;2023-08-31T07:48:56;17.80;99.90
24252;DHT22;12380;51.118;4.176;2023-08-31T07:51:22;18.00;99.90
24252;DHT22;12380;51.118;4.176;2023-08-31T07:53:48;17.70;99.90
24252;DHT22;12380;51.118;4.176;2023-08-31T07:56:14;18.00;99.90
24252;DHT22;12380;51.118;4.176;2023-08-31T07:58:39;18.30;99.90
24252;DHT22;12380;51.118;4.176;2023-08-31T08:01:08;18.80;99.90
24252;DHT22;12380;51.118;4.176;2023-08-31T08:03:33;18.70;99.90
24252;DHT22;12380;51.118;4.176;2023-08-31T08:06:00;19.00;99.90
24252;DHT22;12380;51.118;4.176;2023-08-31T08:08:25;19.00;99.90
24252;DHT22;12380;51.118;4.176;2023-08-31T08:10:52;18.70;99.90
24252;DHT22;12380;51.118;4.176;2023-08-31T08:13:20;18.90;99.90
24252;DHT22;12380;51.118;4.176;2023-08-31T08:15:46;18.70;99.90
24252;DHT22;12380;51.118;4.176;2023-08-31T08:18:11;19.10;99.90
24252;DHT22;12380;51.118;4.176;2023-08-31T08:20:37;19.80;99.90
24252;DHT22;12380;51.118;4.176;2023-08-31T08:23:03;20.30;99.90
24252;DHT22;12380;51.118;4.176;2023-08-31T08:25:29;19.50;49.60
24252;DHT22;12380;51.118;4.176;2023-08-31T08:27:54;19.70;12.90
24252;DHT22;12380;51.118;4.176;2023-08-31T08:30:20;19.80;1.00
24252;DHT22;12380;51.118;4.176;2023-08-31T08:32:45;19.70;1.00
24252;DHT22;12380;51.118;4.176;2023-08-31T08:35:11;20.00;1.00
24252;DHT22;12380;51.118;4.176;2023-08-31T08:37:37;20.50;99.90
24252;DHT22;12380;51.118;4.176;2023-08-31T08:40:03;21.10;1.00
24252;DHT22;12380;51.118;4.176;2023-08-31T08:42:29;20.50;1.00
24252;DHT22;12380;51.118;4.176;2023-08-31T08:44:57;21.20;1.00
24252;DHT22;12380;51.118;4.176;2023-08-31T08:47:25;21.20;38.50
24252;DHT22;12380;51.118;4.176;2023-08-31T08:49:53;20.70;99.90
24252;DHT22;12380;51.118;4.176;2023-08-31T08:52:20;20.20;63.90
24252;DHT22;12380;51.118;4.176;2023-08-31T08:54:47;19.80;1.00
24252;DHT22;12380;51.118;4.176;2023-08-31T08:57:13;20.40;99.90
24252;DHT22;12380;51.118;4.176;2023-08-31T08:59:41;20.60;1.00
24252;DHT22;12380;51.118;4.176;2023-08-31T09:02:10;21.10;88.80
24252;DHT22;12380;51.118;4.176;2023-08-31T09:04:36;22.10;29.60
24252;DHT22;12380;51.118;4.176;2023-08-31T09:07:02;22.30;1.00
24252;DHT22;12380;51.118;4.176;2023-08-31T09:09:27;22.40;99.90
24252;DHT22;12380;51.118;4.176;2023-08-31T09:11:55;22.50;99.90
24252;DHT22;12380;51.118;4.176;2023-08-31T09:14:21;22.50;1.00
24252;DHT22;12380;51.118;4.176;2023-08-31T09:16:50;22.60;1.00
24252;DHT22;12380;51.118;4.176;2023-08-31T09:19:20;22.50;99.90
24252;DHT22;12380;51.118;4.176;2023-08-31T09:21:46;22.80;31.50
24252;DHT22;12380;51.118;4.176;2023-08-31T09:24:12;22.90;1.00
24252;DHT22;12380;51.118;4.176;2023-08-31T09:26:39;23.10;70.60
24252;DHT22;12380;51.118;4.176;2023-08-31T09:29:08;22.30;99.90
24252;DHT22;12380;51.118;4.176;2023-08-31T09:31:34;21.60;1.00
24252;DHT22;12380;51.118;4.176;2023-08-31T09:33:59;21.20;1.00
24252;DHT22;12380;51.118;4.176;2023-08-31T09:36:25;21.20;1.00
24252;DHT22;12380;51.118;4.176;2023-08-31T09:38:56;21.40;1.00
24252;DHT22;12380;51.118;4.176;2023-08-31T09:41:22;21.00;99.90
24252;DHT22;12380;51.118;4.176;2023-08-31T09:43:48;20.50;1.00
24252;DHT22;12380;51.118;4.176;2023-08-31T09:46:14;20.30;1.00
24252;DHT22;12380;51.118;4.176;2023-08-31T09:48:41;20.80;99.90
24252;DHT22;12380;51.118;4.176;2023-08-31T09:51:07;20.90;1.00
24252;DHT22;12380;51.118;4.176;2023-08-31T09:53:32;21.00;1.00
24252;DHT22;12380;51.118;4.176;2023-08-31T09:56:01;20.80;99.90
24252;DHT22;12380;51.118;4.176;2023-08-31T09:58:28;21.00;52.70
24252;DHT22;12380;51.118;4.176;2023-08-31T10:00:56;21.10;99.90
24252;DHT22;12380;51.118;4.176;2023-08-31T10:03:22;20.70;99.90
24252;DHT22;12380;51.118;4.176;2023-08-31T10:05:50;20.20;99.90
24252;DHT22;12380;51.118;4.176;2023-08-31T10:08:16;21.10;99.90
24252;DHT22;12380;51.118;4.176;2023-08-31T10:10:41;21.40;99.90
24252;DHT22;12380;51.118;4.176;2023-08-31T10:13:07;21.50;1.00
24252;DHT22;12380;51.118;4.176;2023-08-31T10:15:34;21.60;1.00
24252;DHT22;12380;51.118;4.176;2023-08-31T10:18:02;22.40;1.00
24252;DHT22;12380;51.118;4.176;2023-08-31T10:20:28;22.10;27.20
24252;DHT22;12380;51.118;4.176;2023-08-31T10:23:06;21.50;1.00
24252;DHT22;12380;51.118;4.176;2023-08-31T10:28:16;21.60;1.00
24252;DHT22;12380;51.118;4.176;2023-08-31T10:30:42;22.40;99.90
24252;DHT22;12380;51.118;4.176;2023-08-31T10:33:25;22.70;99.90
24252;DHT22;12380;51.118;4.176;2023-08-31T10:35:54;22.30;1.00
24252;DHT22;12380;51.118;4.176;2023-08-31T10:38:24;21.80;99.90
24252;DHT22;12380;51.118;4.176;2023-08-31T10:41:02;22.50;1.00
24252;DHT22;12380;51.118;4.176;2023-08-31T10:43:42;22.30;99.90
24252;DHT22;12380;51.118;4.176;2023-08-31T10:46:15;22.50;99.90
24252;DHT22;12380;51.118;4.176;2023-08-31T10:51:45;23.30;1.00
24252;DHT22;12380;51.118;4.176;2023-08-31T10:54:12;24.30;1.00
24252;DHT22;12380;51.118;4.176;2023-08-31T10:59:49;23.90;99.90
24252;DHT22;12380;51.118;4.176;2023-08-31T11:02:32;22.90;1.00
24252;DHT22;12380;51.118;4.176;2023-08-31T11:05:02;22.40;1.00
24252;DHT22;12380;51.118;4.176;2023-08-31T11:07:30;22.70;1.00
24252;DHT22;12380;51.118;4.176;2023-08-31T11:10:15;22.80;99.90
24252;DHT22;12380;51.118;4.176;2023-08-31T11:12:43;22.50;1.00
24252;DHT22;12380;51.118;4.176;2023-08-31T11:15:13;22.80;1.00
24252;DHT22;12380;51.118;4.176;2023-08-31T11:17:40;23.00;99.90
24252;DHT22;12380;51.118;4.176;2023-08-31T11:20:06;22.60;98.60
24252;DHT22;12380;51.118;4.176;2023-08-31T11:22:31;22.70;99.90
24252;DHT22;12380;51.118;4.176;2023-08-31T11:24:58;22.40;1.00
24252;DHT22;12380;51.118;4.176;2023-08-31T11:27:26;22.30;4.70
24252;DHT22;12380;51.118;4.176;2023-08-31T11:29:51;22.30;1.00
24252;DHT22;12380;51.118;4.176;2023-08-31T11:32:17;22.50;9.60
24252;DHT22;12380;51.118;4.176;2023-08-31T11:34:43;22.60;1.00
24252;DHT22;12380;51.118;4.176;2023-08-31T11:37:12;22.70;99.90
24252;DHT22;12380;51.118;4.176;2023-08-31T11:39:42;22.70;1.00
24252;DHT22;12380;51.118;4.176;2023-08-31T11:42:09;22.70;1.00
24252;DHT22;12380;51.118;4.176;2023-08-31T11:44:35;22.40;1.00
24252;DHT22;12380;51.118;4.176;2023-08-31T11:47:01;22.20;1.00
24252;DHT22;12380;51.118;4.176;2023-08-31T11:49:26;22.10;1.00
24252;DHT22;12380;51.118;4.176;2023-08-31T11:51:55;22.30;1.00
24252;DHT22;12380;51.118;4.176;2023-08-31T11:54:20;22.10;1.00
24252;DHT22;12380;51.118;4.176;2023-08-31T11:56:46;21.60;99.90
24252;DHT22;12380;51.118;4.176;2023-08-31T11:59:19;21.40;99.90
24252;DHT22;12380;51.118;4.176;2023-08-31T12:01:47;21.30;99.90
24252;DHT22;12380;51.118;4.176;2023-08-31T12:06:41;20.70;17.90
24252;DHT22;12380;51.118;4.176;2023-08-31T12:09:10;20.80;1.00
24252;DHT22;12380;51.118;4.176;2023-08-31T12:11:37;20.80;1.00
24252;DHT22;12380;51.118;4.176;2023-08-31T12:14:03;21.20;1.00
24252;DHT22;12380;51.118;4.176;2023-08-31T12:16:33;21.50;99.90
24252;DHT22;12380;51.118;4.176;2023-08-31T12:19:01;21.40;1.00
24252;DHT22;12380;51.118;4.176;2023-08-31T12:21:27;21.40;1.00
24252;DHT22;12380;51.118;4.176;2023-08-31T12:23:53;22.00;1.00
24252;DHT22;12380;51.118;4.176;2023-08-31T12:26:18;21.90;99.90
24252;DHT22;12380;51.118;4.176;2023-08-31T12:28:46;20.80;1.00
24252;DHT22;12380;51.118;4.176;2023-08-31T12:31:12;20.40;1.00
24252;DHT22;12380;51.118;4.176;2023-08-31T12:33:38;20.60;73.70
24252;DHT22;12380;51.118;4.176;2023-08-31T12:36:03;20.30;99.90
24252;DHT22;12380;51.118;4.176;2023-08-31T12:38:29;20.30;99.90
24252;DHT22;12380;51.118;4.176;2023-08-31T12:40:54;20.80;1.00
24252;DHT22;12380;51.118;4.176;2023-08-31T12:43:23;20.90;1.00
24252;DHT22;12380;51.118;4.176;2023-08-31T12:45:48;20.90;1.00
24252;DHT22;12380;51.118;4.176;2023-08-31T12:48:14;20.40;99.90
24252;DHT22;12380;51.118;4.176;2023-08-31T12:50:39;20.30;1.00
24252;DHT22;12380;51.118;4.176;2023-08-31T12:53:05;20.20;1.00
24252;DHT22;12380;51.118;4.176;2023-08-31T12:55:31;20.00;99.90
24252;DHT22;12380;51.118;4.176;2023-08-31T12:57:56;20.20;18.30
24252;DHT22;12380;51.118;4.176;2023-08-31T13:00:25;20.30;99.90
24252;DHT22;12380;51.118;4.176;2023-08-31T13:02:51;20.50;1.00
24252;DHT22;12380;51.118;4.176;2023-08-31T13:05:16;20.60;1.00
24252;DHT22;12380;51.118;4.176;2023-08-31T13:07:45;20.40;1.00
24252;DHT22;12380;51.118;4.176;2023-08-31T13:10:11;20.60;99.90
24252;DHT22;12380;51.118;4.176;2023-08-31T13:12:37;20.30;1.00
24252;DHT22;12380;51.118;4.176;2023-08-31T13:15:02;19.90;1.00
24252;DHT22;12380;51.118;4.176;2023-08-31T13:17:28;20.00;1.00
24252;DHT22;12380;51.118;4.176;2023-08-31T13:19:54;20.20;1.00
24252;DHT22;12380;51.118;4.176;2023-08-31T13:22:20;20.20;99.90
24252;DHT22;12380;51.118;4.176;2023-08-31T13:24:46;20.40;1.00
24252;DHT22;12380;51.118;4.176;2023-08-31T13:27:12;20.10;99.90
24252;DHT22;12380;51.118;4.176;2023-08-31T13:29:40;19.80;1.00
24252;DHT22;12380;51.118;4.176;2023-08-31T13:32:05;19.60;8.10
24252;DHT22;12380;51.118;4.176;2023-08-31T13:34:32;19.90;99.90
24252;DHT22;12380;51.118;4.176;2023-08-31T13:36:58;20.00;79.50
24252;DHT22;12380;51.118;4.176;2023-08-31T13:39:23;20.40;1.00
24252;DHT22;12380;51.118;4.176;2023-08-31T13:41:50;21.00;1.00
24252;DHT22;12380;51.118;4.176;2023-08-31T13:44:16;21.50;99.90
24252;DHT22;12380;51.118;4.176;2023-08-31T13:46:41;22.00;1.00
24252;DHT22;12380;51.118;4.176;2023-08-31T13:49:07;21.90;1.00
24252;DHT22;12380;51.118;4.176;2023-08-31T13:51:35;21.90;1.00
24252;DHT22;12380;51.118;4.176;2023-08-31T13:54:02;21.70;1.00
24252;DHT22;12380;51.118;4.176;2023-08-31T13:56:32;21.90;1.00
24252;DHT22;12380;51.118;4.176;2023-08-31T13:58:58;22.10;1.00
24252;DHT22;12380;51.118;4.176;2023-08-31T14:01:24;21.60;1.00
24252;DHT22;12380;51.118;4.176;2023-08-31T14:03:50;21.50;1.00
24252;DHT22;12380;51.118;4.176;2023-08-31T14:06:15;21.60;99.90
24252;DHT22;12380;51.118;4.176;2023-08-31T14:08:41;21.40;1.00
24252;DHT22;12380;51.118;4.176;2023-08-31T14:11:07;21.30;1.00
24252;DHT22;12380;51.118;4.176;2023-08-31T14:13:32;21.30;1.00
24252;DHT22;12380;51.118;4.176;2023-08-31T14:16:01;21.10;99.90
24252;DHT22;12380;51.118;4.176;2023-08-31T14:18:27;20.80;1.00
24252;DHT22;12380;51.118;4.176;2023-08-31T14:20:54;20.70;1.00
24252;DHT22;12380;51.118;4.176;2023-08-31T14:23:23;20.90;1.00
24252;DHT22;12380;51.118;4.176;2023-08-31T14:25:48;20.70;99.90
24252;DHT22;12380;51.118;4.176;2023-08-31T14:28:14;20.60;7.80
24252;DHT22;12380;51.118;4.176;2023-08-31T14:30:42;20.50;52.20
24252;DHT22;12380;51.118;4.176;2023-08-31T14:33:08;20.20;78.00
24252;DHT22;12380;51.118;4.176;2023-08-31T14:35:37;20.00;99.90
24252;DHT22;12380;51.118;4.176;2023-08-31T14:38:02;20.00;99.90
24252;DHT22;12380;51.118;4.176;2023-08-31T14:40:28;20.00;99.90
24252;DHT22;12380;51.118;4.176;2023-08-31T14:42:54;20.00;99.90
24252;DHT22;12380;51.118;4.176;2023-08-31T14:45:20;20.00;1.00
24252;DHT22;12380;51.118;4.176;2023-08-31T14:47:48;20.20;1.00
24252;DHT22;12380;51.118;4.176;2023-08-31T14:50:13;20.30;1.00
24252;DHT22;12380;51.118;4.176;2023-08-31T14:52:39;20.20;99.90
24252;DHT22;12380;51.118;4.176;2023-08-31T14:55:07;20.20;1.00
24252;DHT22;12380;51.118;4.176;2023-08-31T14:57:32;20.00;99.90
24252;DHT22;12380;51.118;4.176;2023-08-31T15:00:00;20.00;1.00
24252;DHT22;12380;51.118;4.176;2023-08-31T15:02:30;20.10;1.00
24252;DHT22;12380;51.118;4.176;2023-08-31T15:04:56;20.20;1.00
24252;DHT22;12380;51.118;4.176;2023-08-31T15:07:23;20.00;1.00
24252;DHT22;12380;51.118;4.176;2023-08-31T15:09:51;19.90;1.00
24252;DHT22;12380;51.118;4.176;2023-08-31T15:12:17;19.80;99.90
24252;DHT22;12380;51.118;4.176;2023-08-31T15:14:47;19.70;1.00
24252;DHT22;12380;51.118;4.176;2023-08-31T15:17:15;19.70;87.30
24252;DHT22;12380;51.118;4.176;2023-08-31T15:19:44;19.50;1.00
24252;DHT22;12380;51.118;4.176;2023-08-31T15:22:10;19.50;88.40
24252;DHT22;12380;51.118;4.176;2023-08-31T15:24:35;19.50;1.00
24252;DHT22;12380;51.118;4.176;2023-08-31T15:27:02;19.10;1.00
24252;DHT22;12380;51.118;4.176;2023-08-31T15:29:28;19.10;1.00
24252;DHT22;12380;51.118;4.176;2023-08-31T15:31:56;19.10;99.90
24252;DHT22;12380;51.118;4.176;2023-08-31T15:34:22;19.30;44.20
24252;DHT22;12380;51.118;4.176;2023-08-31T15:36:48;19.20;1.00
24252;DHT22;12380;51.118;4.176;2023-08-31T15:39:14;19.30;1.00
24252;DHT22;12380;51.118;4.176;2023-08-31T15:41:39;19.30;1.00
24252;DHT22;12380;51.118;4.176;2023-08-31T15:44:05;19.30;99.90
24252;DHT22;12380;51.118;4.176;2023-08-31T15:46:31;19.10;1.00
24252;DHT22;12380;51.118;4.176;2023-08-31T15:48:56;19.10;1.00